sensor_id;sensor_type;location;lat;lon;timestamp;P1;durP1;ratioP1;P2;durP2;ratioP2
50671;SDS011;46021;55.882;37.654;2022-07-17T00:02:00;6.63;;;2.63;;
50671;SDS011;46021;55.882;37.654;2022-07-17T00:04:27;6.37;;;3.00;;
50671;SDS011;46021;55.882;37.654;2022-07-17T00:06:54;6.38;;;2.70;;
50671;SDS011;46021;55.882;37.654;2022-07-17T00:09:21;5.38;;;2.45;;
50671;SDS011;46021;55.882;37.654;2022-07-17T00:11:47;7.97;;;2.88;;
50671;SDS011;46021;55.882;37.654;2022-07-17T00:14:14;5.68;;;2.53;;
50671;SDS011;46021;55.882;37.654;2022-07-17T00:16:42;10.43;;;3.50;;
50671;SDS011;46021;55.882;37.654;2022-07-17T00:19:08;5.63;;;2.85;;
50671;SDS011;46021;55.882;37.654;2022-07-17T00:21:37;5.97;;;2.70;;
50671;SDS011;46021;55.882;37.654;2022-07-17T00:24:04;7.95;;;2.88;;
50671;SDS011;46021;55.882;37.654;2022-07-17T00:26:31;7.38;;;3.05;;
50671;SDS011;46021;55.882;37.654;2022-07-17T00:28:59;5.32;;;2.45;;
50671;SDS011;46021;55.882;37.654;2022-07-17T00:31:25;5.88;;;2.47;;
50671;SDS011;46021;55.882;37.654;2022-07-17T00:33:53;7.30;;;3.00;;
50671;SDS011;46021;55.882;37.654;2022-07-17T00:36:20;6.57;;;3.45;;
50671;SDS011;46021;55.882;37.654;2022-07-17T00:38:46;8.95;;;3.65;;
50671;SDS011;46021;55.882;37.654;2022-07-17T00:41:13;10.50;;;3.80;;
50671;SDS011;46021;55.882;37.654;2022-07-17T00:43:40;7.93;;;3.45;;
50671;SDS011;46021;55.882;37.654;2022-07-17T00:46:07;8.02;;;3.50;;
50671;SDS011;46021;55.882;37.654;2022-07-17T00:48:35;8.48;;;3.72;;
50671;SDS011;46021;55.882;37.654;2022-07-17T00:51:03;9.90;;;3.60;;
50671;SDS011;46021;55.882;37.654;2022-07-17T00:55:57;6.70;;;3.72;;
50671;SDS011;46021;55.882;37.654;2022-07-17T00:58:24;7.72;;;3.80;;
50671;SDS011;46021;55.882;37.654;2022-07-17T01:00:55;11.52;;;3.97;;
50671;SDS011;46021;55.882;37.654;2022-07-17T01:03:23;6.18;;;3.88;;
50671;SDS011;46021;55.882;37.654;2022-07-17T01:05:51;7.65;;;3.90;;
50671;SDS011;46021;55.882;37.654;2022-07-17T01:08:19;11.15;;;4.35;;
50671;SDS011;46021;55.882;37.654;2022-07-17T01:10:46;10.70;;;3.55;;
50671;SDS011;46021;55.882;37.654;2022-07-17T01:13:13;11.20;;;3.80;;
50671;SDS011;46021;55.882;37.654;2022-07-17T01:15:40;10.67;;;4.10;;
50671;SDS011;46021;55.882;37.654;2022-07-17T01:18:08;12.15;;;4.18;;
50671;SDS011;46021;55.882;37.654;2022-07-17T01:20:36;12.27;;;4.63;;
50671;SDS011;46021;55.882;37.654;2022-07-17T01:23:05;10.80;;;4.53;;
50671;SDS011;46021;55.882;37.654;2022-07-17T01:25:33;9.45;;;4.20;;
50671;SDS011;46021;55.882;37.654;2022-07-17T01:28:00;10.73;;;4.22;;
50671;SDS011;46021;55.882;37.654;2022-07-17T01:30:28;10.82;;;4.22;;
50671;SDS011;46021;55.882;37.654;2022-07-17T01:32:55;6.75;;;3.55;;
50671;SDS011;46021;55.882;37.654;2022-07-17T01:35:22;11.03;;;4.20;;
50671;SDS011;46021;55.882;37.654;2022-07-17T01:37:49;8.45;;;3.63;;
50671;SDS011;46021;55.882;37.654;2022-07-17T01:40:16;10.57;;;4.00;;
50671;SDS011;46021;55.882;37.654;2022-07-17T01:42:45;8.88;;;3.70;;
50671;SDS011;46021;55.882;37.654;2022-07-17T01:45:13;8.35;;;3.80;;
50671;SDS011;46021;55.882;37.654;2022-07-17T01:47:41;8.73;;;3.85;;
50671;SDS011;46021;55.882;37.654;2022-07-17T01:50:09;12.27;;;4.20;;
50671;SDS011;46021;55.882;37.654;2022-07-17T01:52:37;8.38;;;4.10;;
50671;SDS011;46021;55.882;37.654;2022-07-17T01:55:05;9.07;;;3.83;;
50671;SDS011;46021;55.882;37.654;2022-07-17T02:00:00;10.18;;;4.00;;
50671;SDS011;46021;55.882;37.654;2022-07-17T02:02:33;10.35;;;4.45;;
50671;SDS011;46021;55.882;37.654;2022-07-17T02:05:00;14.17;;;4.20;;
50671;SDS011;46021;55.882;37.654;2022-07-17T02:07:29;17.15;;;4.00;;
50671;SDS011;46021;55.882;37.654;2022-07-17T02:09:56;11.15;;;3.65;;
50671;SDS011;46021;55.882;37.654;2022-07-17T02:12:23;8.35;;;3.78;;
50671;SDS011;46021;55.882;37.654;2022-07-17T02:14:50;9.23;;;3.97;;
50671;SDS011;46021;55.882;37.654;2022-07-17T02:17:17;10.98;;;4.53;;
50671;SDS011;46021;55.882;37.654;2022-07-17T02:19:44;12.77;;;3.90;;
50671;SDS011;46021;55.882;37.654;2022-07-17T02:22:11;9.30;;;4.22;;
50671;SDS011;46021;55.882;37.654;2022-07-17T02:24:38;10.55;;;4.28;;
50671;SDS011;46021;55.882;37.654;2022-07-17T02:27:04;9.02;;;4.13;;
50671;SDS011;46021;55.882;37.654;2022-07-17T02:29:31;14.23;;;4.53;;
50671;SDS011;46021;55.882;37.654;2022-07-17T02:31:58;11.70;;;4.03;;
50671;SDS011;46021;55.882;37.654;2022-07-17T02:34:24;13.45;;;4.00;;
50671;SDS011;46021;55.882;37.654;2022-07-17T02:36:51;11.13;;;4.60;;
50671;SDS011;46021;55.882;37.654;2022-07-17T02:39:18;8.95;;;4.50;;
50671;SDS011;46021;55.882;37.654;2022-07-17T02:41:44;8.63;;;3.72;;
50671;SDS011;46021;55.882;37.654;2022-07-17T02:44:11;11.70;;;4.28;;
50671;SDS011;46021;55.882;37.654;2022-07-17T02:46:37;14.82;;;4.65;;
50671;SDS011;46021;55.882;37.654;2022-07-17T02:49:05;7.95;;;4.50;;
50671;SDS011;46021;55.882;37.654;2022-07-17T02:51:32;15.05;;;4.63;;
50671;SDS011;46021;55.882;37.654;2022-07-17T02:53:58;10.02;;;4.90;;
50671;SDS011;46021;55.882;37.654;2022-07-17T02:56:25;9.65;;;4.07;;
50671;SDS011;46021;55.882;37.654;2022-07-17T02:58:51;10.63;;;4.65;;
50671;SDS011;46021;55.882;37.654;2022-07-17T03:01:18;10.43;;;4.93;;
50671;SDS011;46021;55.882;37.654;2022-07-17T03:03:44;10.43;;;4.75;;
50671;SDS011;46021;55.882;37.654;2022-07-17T03:06:12;10.27;;;4.53;;
50671;SDS011;46021;55.882;37.654;2022-07-17T03:08:38;15.00;;;4.90;;
50671;SDS011;46021;55.882;37.654;2022-07-17T03:11:05;9.15;;;4.63;;
50671;SDS011;46021;55.882;37.654;2022-07-17T03:13:32;11.20;;;3.92;;
50671;SDS011;46021;55.882;37.654;2022-07-17T03:15:59;10.88;;;4.63;;
50671;SDS011;46021;55.882;37.654;2022-07-17T03:18:26;10.05;;;4.22;;
50671;SDS011;46021;55.882;37.654;2022-07-17T03:20:53;9.32;;;4.20;;
50671;SDS011;46021;55.882;37.654;2022-07-17T03:23:20;9.40;;;4.25;;
50671;SDS011;46021;55.882;37.654;2022-07-17T03:25:47;14.65;;;4.55;;
50671;SDS011;46021;55.882;37.654;2022-07-17T03:28:14;10.57;;;4.65;;
50671;SDS011;46021;55.882;37.654;2022-07-17T03:30:41;7.25;;;4.50;;
50671;SDS011;46021;55.882;37.654;2022-07-17T03:33:07;11.23;;;4.35;;
50671;SDS011;46021;55.882;37.654;2022-07-17T03:35:34;15.15;;;4.40;;
50671;SDS011;46021;55.882;37.654;2022-07-17T03:38:02;13.93;;;4.50;;
50671;SDS011;46021;55.882;37.654;2022-07-17T03:40:29;10.15;;;3.88;;
50671;SDS011;46021;55.882;37.654;2022-07-17T03:42:57;14.45;;;4.30;;
50671;SDS011;46021;55.882;37.654;2022-07-17T03:45:24;12.48;;;4.55;;
50671;SDS011;46021;55.882;37.654;2022-07-17T03:47:51;8.65;;;4.50;;
50671;SDS011;46021;55.882;37.654;2022-07-17T03:50:17;13.98;;;5.10;;
50671;SDS011;46021;55.882;37.654;2022-07-17T03:52:44;10.45;;;4.13;;
50671;SDS011;46021;55.882;37.654;2022-07-17T03:55:10;10.75;;;4.60;;
50671;SDS011;46021;55.882;37.654;2022-07-17T03:57:37;11.95;;;5.10;;
50671;SDS011;46021;55.882;37.654;2022-07-17T04:00:04;8.20;;;4.38;;
50671;SDS011;46021;55.882;37.654;2022-07-17T04:02:37;12.93;;;4.07;;
50671;SDS011;46021;55.882;37.654;2022-07-17T04:05:04;11.48;;;4.10;;
50671;SDS011;46021;55.882;37.654;2022-07-17T04:07:35;7.95;;;4.22;;
50671;SDS011;46021;55.882;37.654;2022-07-17T04:10:02;10.15;;;4.18;;
50671;SDS011;46021;55.882;37.654;2022-07-17T04:12:29;8.27;;;4.30;;
50671;SDS011;46021;55.882;37.654;2022-07-17T04:14:56;10.45;;;4.60;;
50671;SDS011;46021;55.882;37.654;2022-07-17T04:17:23;17.27;;;5.18;;
50671;SDS011;46021;55.882;37.654;2022-07-17T04:19:50;12.40;;;5.05;;
50671;SDS011;46021;55.882;37.654;2022-07-17T04:22:17;19.42;;;4.72;;
50671;SDS011;46021;55.882;37.654;2022-07-17T04:24:43;9.60;;;3.90;;
50671;SDS011;46021;55.882;37.654;2022-07-17T04:27:10;11.23;;;4.63;;
50671;SDS011;46021;55.882;37.654;2022-07-17T04:32:05;16.52;;;3.42;;
50671;SDS011;46021;55.882;37.654;2022-07-17T04:34:34;8.25;;;3.15;;
50671;SDS011;46021;55.882;37.654;2022-07-17T04:37:01;10.18;;;3.00;;
50671;SDS011;46021;55.882;37.654;2022-07-17T04:39:29;6.97;;;2.50;;
50671;SDS011;46021;55.882;37.654;2022-07-17T04:41:56;9.00;;;3.70;;
50671;SDS011;46021;55.882;37.654;2022-07-17T04:44:23;5.82;;;1.85;;
50671;SDS011;46021;55.882;37.654;2022-07-17T04:46:50;8.40;;;2.20;;
50671;SDS011;46021;55.882;37.654;2022-07-17T04:49:17;3.05;;;1.58;;
50671;SDS011;46021;55.882;37.654;2022-07-17T04:51:44;6.22;;;1.85;;
50671;SDS011;46021;55.882;37.654;2022-07-17T04:54:10;11.40;;;1.50;;
50671;SDS011;46021;55.882;37.654;2022-07-17T04:56:37;2.63;;;1.40;;
50671;SDS011;46021;55.882;37.654;2022-07-17T04:59:03;3.72;;;1.45;;
50671;SDS011;46021;55.882;37.654;2022-07-17T05:01:30;2.03;;;1.20;;
50671;SDS011;46021;55.882;37.654;2022-07-17T05:03:56;4.30;;;1.70;;
50671;SDS011;46021;55.882;37.654;2022-07-17T05:06:24;8.48;;;2.17;;
50671;SDS011;46021;55.882;37.654;2022-07-17T05:08:51;2.70;;;1.00;;
50671;SDS011;46021;55.882;37.654;2022-07-17T05:11:17;2.78;;;1.15;;
50671;SDS011;46021;55.882;37.654;2022-07-17T05:13:44;3.17;;;1.42;;
50671;SDS011;46021;55.882;37.654;2022-07-17T05:16:10;2.13;;;1.00;;
50671;SDS011;46021;55.882;37.654;2022-07-17T05:18:37;4.93;;;1.17;;
50671;SDS011;46021;55.882;37.654;2022-07-17T05:21:03;5.55;;;0.90;;
50671;SDS011;46021;55.882;37.654;2022-07-17T05:23:31;3.10;;;1.35;;
50671;SDS011;46021;55.882;37.654;2022-07-17T05:25:57;4.07;;;0.90;;
50671;SDS011;46021;55.882;37.654;2022-07-17T05:28:24;4.32;;;1.30;;
50671;SDS011;46021;55.882;37.654;2022-07-17T05:30:51;3.45;;;1.92;;
50671;SDS011;46021;55.882;37.654;2022-07-17T05:33:17;4.50;;;1.17;;
50671;SDS011;46021;55.882;37.654;2022-07-17T05:35:44;3.95;;;1.05;;
50671;SDS011;46021;55.882;37.654;2022-07-17T05:38:19;11.35;;;2.15;;
50671;SDS011;46021;55.882;37.654;2022-07-17T05:40:48;2.80;;;1.13;;
50671;SDS011;46021;55.882;37.654;2022-07-17T05:43:15;4.55;;;1.00;;
50671;SDS011;46021;55.882;37.654;2022-07-17T05:45:42;1.80;;;1.00;;
50671;SDS011;46021;55.882;37.654;2022-07-17T05:48:08;1.73;;;0.95;;
50671;SDS011;46021;55.882;37.654;2022-07-17T05:50:35;0.82;;;0.68;;
50671;SDS011;46021;55.882;37.654;2022-07-17T05:53:03;1.80;;;0.85;;
50671;SDS011;46021;55.882;37.654;2022-07-17T05:55:29;4.53;;;0.75;;
50671;SDS011;46021;55.882;37.654;2022-07-17T05:57:57;1.98;;;0.85;;
50671;SDS011;46021;55.882;37.654;2022-07-17T06:00:23;1.85;;;0.90;;
50671;SDS011;46021;55.882;37.654;2022-07-17T06:02:50;2.45;;;0.80;;
50671;SDS011;46021;55.882;37.654;2022-07-17T06:05:17;1.45;;;0.70;;
50671;SDS011;46021;55.882;37.654;2022-07-17T06:07:43;1.90;;;0.95;;
50671;SDS011;46021;55.882;37.654;2022-07-17T06:10:11;8.20;;;1.20;;
50671;SDS011;46021;55.882;37.654;2022-07-17T06:12:37;3.05;;;1.45;;
50671;SDS011;46021;55.882;37.654;2022-07-17T06:15:05;3.42;;;1.20;;
50671;SDS011;46021;55.882;37.654;2022-07-17T06:17:33;3.85;;;0.70;;
50671;SDS011;46021;55.882;37.654;2022-07-17T06:19:59;2.97;;;1.67;;
50671;SDS011;46021;55.882;37.654;2022-07-17T06:22:26;1.27;;;0.60;;
50671;SDS011;46021;55.882;37.654;2022-07-17T06:24:54;6.93;;;2.10;;
50671;SDS011;46021;55.882;37.654;2022-07-17T06:27:21;2.78;;;1.08;;
50671;SDS011;46021;55.882;37.654;2022-07-17T06:29:47;2.00;;;1.08;;
50671;SDS011;46021;55.882;37.654;2022-07-17T06:32:15;0.90;;;0.70;;
50671;SDS011;46021;55.882;37.654;2022-07-17T06:34:42;2.72;;;1.10;;
50671;SDS011;46021;55.882;37.654;2022-07-17T06:37:22;1.50;;;0.68;;
50671;SDS011;46021;55.882;37.654;2022-07-17T06:39:49;4.35;;;0.77;;
50671;SDS011;46021;55.882;37.654;2022-07-17T06:42:15;2.33;;;0.87;;
50671;SDS011;46021;55.882;37.654;2022-07-17T06:44:42;3.13;;;0.87;;
50671;SDS011;46021;55.882;37.654;2022-07-17T06:47:08;2.20;;;0.93;;
50671;SDS011;46021;55.882;37.654;2022-07-17T06:49:36;1.53;;;0.80;;
50671;SDS011;46021;55.882;37.654;2022-07-17T06:52:02;2.60;;;1.13;;
50671;SDS011;46021;55.882;37.654;2022-07-17T06:54:29;7.85;;;3.60;;
50671;SDS011;46021;55.882;37.654;2022-07-17T06:56:56;1.67;;;0.90;;
50671;SDS011;46021;55.882;37.654;2022-07-17T06:59:23;2.67;;;1.10;;
50671;SDS011;46021;55.882;37.654;2022-07-17T07:04:16;3.33;;;0.80;;
50671;SDS011;46021;55.882;37.654;2022-07-17T07:06:43;2.28;;;0.60;;
50671;SDS011;46021;55.882;37.654;2022-07-17T07:09:10;0.77;;;0.52;;
50671;SDS011;46021;55.882;37.654;2022-07-17T07:11:37;2.03;;;0.75;;
50671;SDS011;46021;55.882;37.654;2022-07-17T07:14:04;4.53;;;0.80;;
50671;SDS011;46021;55.882;37.654;2022-07-17T07:16:30;3.50;;;1.25;;
50671;SDS011;46021;55.882;37.654;2022-07-17T07:18:57;1.80;;;0.93;;
50671;SDS011;46021;55.882;37.654;2022-07-17T07:21:23;1.83;;;0.70;;
50671;SDS011;46021;55.882;37.654;2022-07-17T07:23:52;3.72;;;1.10;;
50671;SDS011;46021;55.882;37.654;2022-07-17T07:26:19;1.58;;;0.80;;
50671;SDS011;46021;55.882;37.654;2022-07-17T07:28:45;2.50;;;1.05;;
50671;SDS011;46021;55.882;37.654;2022-07-17T07:31:12;2.97;;;0.82;;
50671;SDS011;46021;55.882;37.654;2022-07-17T07:33:39;2.20;;;0.90;;
50671;SDS011;46021;55.882;37.654;2022-07-17T07:36:05;8.52;;;1.10;;
50671;SDS011;46021;55.882;37.654;2022-07-17T07:38:32;1.75;;;1.00;;
50671;SDS011;46021;55.882;37.654;2022-07-17T07:40:59;2.00;;;1.00;;
50671;SDS011;46021;55.882;37.654;2022-07-17T07:43:26;2.53;;;1.13;;
50671;SDS011;46021;55.882;37.654;2022-07-17T07:45:53;3.47;;;1.75;;
50671;SDS011;46021;55.882;37.654;2022-07-17T07:48:20;5.72;;;3.05;;
50671;SDS011;46021;55.882;37.654;2022-07-17T07:50:46;6.63;;;1.57;;
50671;SDS011;46021;55.882;37.654;2022-07-17T07:53:13;5.38;;;2.97;;
50671;SDS011;46021;55.882;37.654;2022-07-17T07:55:39;8.07;;;3.17;;
50671;SDS011;46021;55.882;37.654;2022-07-17T07:58:07;5.40;;;2.50;;
50671;SDS011;46021;55.882;37.654;2022-07-17T08:00:36;3.38;;;1.40;;
50671;SDS011;46021;55.882;37.654;2022-07-17T08:03:04;5.75;;;2.35;;
50671;SDS011;46021;55.882;37.654;2022-07-17T08:05:30;6.00;;;1.60;;
50671;SDS011;46021;55.882;37.654;2022-07-17T08:07:57;8.02;;;2.47;;
50671;SDS011;46021;55.882;37.654;2022-07-17T08:10:24;5.38;;;1.60;;
50671;SDS011;46021;55.882;37.654;2022-07-17T08:12:54;3.65;;;1.13;;
50671;SDS011;46021;55.882;37.654;2022-07-17T08:15:21;6.47;;;1.97;;
50671;SDS011;46021;55.882;37.654;2022-07-17T08:17:49;4.30;;;1.85;;
50671;SDS011;46021;55.882;37.654;2022-07-17T08:20:17;2.92;;;0.93;;
50671;SDS011;46021;55.882;37.654;2022-07-17T08:22:45;3.67;;;1.60;;
50671;SDS011;46021;55.882;37.654;2022-07-17T08:25:12;2.97;;;0.90;;
50671;SDS011;46021;55.882;37.654;2022-07-17T08:30:07;4.47;;;1.58;;
50671;SDS011;46021;55.882;37.654;2022-07-17T08:32:36;6.10;;;1.30;;
50671;SDS011;46021;55.882;37.654;2022-07-17T08:35:04;3.10;;;1.00;;
50671;SDS011;46021;55.882;37.654;2022-07-17T08:37:41;6.10;;;1.27;;
50671;SDS011;46021;55.882;37.654;2022-07-17T08:40:10;2.15;;;1.17;;
50671;SDS011;46021;55.882;37.654;2022-07-17T08:42:42;3.78;;;1.00;;
50671;SDS011;46021;55.882;37.654;2022-07-17T08:45:09;2.72;;;1.10;;
50671;SDS011;46021;55.882;37.654;2022-07-17T08:47:36;1.75;;;1.08;;
50671;SDS011;46021;55.882;37.654;2022-07-17T08:52:30;3.10;;;1.10;;
50671;SDS011;46021;55.882;37.654;2022-07-17T08:54:56;3.20;;;1.30;;
50671;SDS011;46021;55.882;37.654;2022-07-17T08:57:23;2.05;;;1.00;;
50671;SDS011;46021;55.882;37.654;2022-07-17T08:59:50;3.50;;;1.00;;
50671;SDS011;46021;55.882;37.654;2022-07-17T09:02:16;3.15;;;1.20;;
50671;SDS011;46021;55.882;37.654;2022-07-17T09:04:51;3.42;;;1.10;;
50671;SDS011;46021;55.882;37.654;2022-07-17T09:07:19;3.30;;;1.35;;
50671;SDS011;46021;55.882;37.654;2022-07-17T09:09:49;3.60;;;0.97;;
50671;SDS011;46021;55.882;37.654;2022-07-17T09:12:16;5.20;;;1.20;;
50671;SDS011;46021;55.882;37.654;2022-07-17T09:14:43;2.28;;;0.88;;
50671;SDS011;46021;55.882;37.654;2022-07-17T09:17:10;6.22;;;1.40;;
50671;SDS011;46021;55.882;37.654;2022-07-17T09:19:39;3.20;;;1.08;;
50671;SDS011;46021;55.882;37.654;2022-07-17T09:22:09;4.45;;;1.10;;
50671;SDS011;46021;55.882;37.654;2022-07-17T09:24:42;1.88;;;0.88;;
50671;SDS011;46021;55.882;37.654;2022-07-17T09:27:10;3.50;;;0.93;;
50671;SDS011;46021;55.882;37.654;2022-07-17T09:29:49;5.20;;;1.00;;
50671;SDS011;46021;55.882;37.654;2022-07-17T09:32:20;11.10;;;1.08;;
50671;SDS011;46021;55.882;37.654;2022-07-17T09:37:14;3.33;;;1.25;;
50671;SDS011;46021;55.882;37.654;2022-07-17T09:39:41;9.73;;;1.45;;
50671;SDS011;46021;55.882;37.654;2022-07-17T09:42:08;3.30;;;1.27;;
50671;SDS011;46021;55.882;37.654;2022-07-17T09:44:36;1.02;;;0.80;;
50671;SDS011;46021;55.882;37.654;2022-07-17T09:47:06;3.33;;;1.13;;
50671;SDS011;46021;55.882;37.654;2022-07-17T09:49:33;3.57;;;1.13;;
50671;SDS011;46021;55.882;37.654;2022-07-17T09:52:00;4.38;;;1.10;;
50671;SDS011;46021;55.882;37.654;2022-07-17T09:54:28;10.98;;;2.75;;
50671;SDS011;46021;55.882;37.654;2022-07-17T09:56:57;4.03;;;1.17;;
50671;SDS011;46021;55.882;37.654;2022-07-17T10:01:56;4.18;;;1.25;;
50671;SDS011;46021;55.882;37.654;2022-07-17T10:04:26;3.83;;;0.98;;
50671;SDS011;46021;55.882;37.654;2022-07-17T10:06:53;1.95;;;0.80;;
50671;SDS011;46021;55.882;37.654;2022-07-17T10:09:21;2.05;;;1.00;;
50671;SDS011;46021;55.882;37.654;2022-07-17T10:11:49;1.90;;;1.02;;
50671;SDS011;46021;55.882;37.654;2022-07-17T10:14:17;2.53;;;0.77;;
50671;SDS011;46021;55.882;37.654;2022-07-17T10:19:15;7.03;;;1.98;;
50671;SDS011;46021;55.882;37.654;2022-07-17T10:21:51;3.97;;;2.08;;
50671;SDS011;46021;55.882;37.654;2022-07-17T10:24:20;2.55;;;1.10;;
50671;SDS011;46021;55.882;37.654;2022-07-17T10:26:47;2.80;;;0.90;;
50671;SDS011;46021;55.882;37.654;2022-07-17T10:29:29;7.53;;;1.13;;
50671;SDS011;46021;55.882;37.654;2022-07-17T10:31:58;2.00;;;1.00;;
50671;SDS011;46021;55.882;37.654;2022-07-17T10:34:39;4.35;;;1.00;;
50671;SDS011;46021;55.882;37.654;2022-07-17T10:37:14;5.85;;;1.08;;
50671;SDS011;46021;55.882;37.654;2022-07-17T10:39:51;0.93;;;0.70;;
50671;SDS011;46021;55.882;37.654;2022-07-17T10:42:36;5.20;;;1.20;;
50671;SDS011;46021;55.882;37.654;2022-07-17T10:45:08;2.75;;;1.05;;
50671;SDS011;46021;55.882;37.654;2022-07-17T10:47:44;3.38;;;0.73;;
50671;SDS011;46021;55.882;37.654;2022-07-17T10:50:12;7.80;;;1.00;;
50671;SDS011;46021;55.882;37.654;2022-07-17T10:55:16;3.50;;;0.85;;
50671;SDS011;46021;55.882;37.654;2022-07-17T10:57:45;0.82;;;0.80;;
50671;SDS011;46021;55.882;37.654;2022-07-17T11:00:13;2.83;;;0.80;;
50671;SDS011;46021;55.882;37.654;2022-07-17T11:02:41;1.85;;;0.90;;
50671;SDS011;46021;55.882;37.654;2022-07-17T11:07:34;3.70;;;1.08;;
50671;SDS011;46021;55.882;37.654;2022-07-17T11:10:01;1.67;;;0.90;;
50671;SDS011;46021;55.882;37.654;2022-07-17T11:12:32;1.73;;;0.80;;
50671;SDS011;46021;55.882;37.654;2022-07-17T11:14:59;1.75;;;0.88;;
50671;SDS011;46021;55.882;37.654;2022-07-17T11:19:53;4.30;;;2.03;;
50671;SDS011;46021;55.882;37.654;2022-07-17T11:22:22;4.32;;;1.70;;
50671;SDS011;46021;55.882;37.654;2022-07-17T11:24:49;3.15;;;0.80;;
50671;SDS011;46021;55.882;37.654;2022-07-17T11:27:19;1.88;;;0.82;;
50671;SDS011;46021;55.882;37.654;2022-07-17T11:29:47;2.38;;;0.90;;
50671;SDS011;46021;55.882;37.654;2022-07-17T11:34:40;5.03;;;0.80;;
50671;SDS011;46021;55.882;37.654;2022-07-17T11:37:08;2.92;;;0.90;;
50671;SDS011;46021;55.882;37.654;2022-07-17T11:39:38;4.93;;;0.70;;
50671;SDS011;46021;55.882;37.654;2022-07-17T11:42:07;10.80;;;4.15;;
50671;SDS011;46021;55.882;37.654;2022-07-17T11:44:34;2.88;;;1.15;;
50671;SDS011;46021;55.882;37.654;2022-07-17T11:49:30;2.53;;;1.00;;
50671;SDS011;46021;55.882;37.654;2022-07-17T11:52:06;1.88;;;1.02;;
50671;SDS011;46021;55.882;37.654;2022-07-17T11:54:43;2.20;;;1.00;;
50671;SDS011;46021;55.882;37.654;2022-07-17T11:57:10;3.03;;;1.15;;
50671;SDS011;46021;55.882;37.654;2022-07-17T11:59:37;7.18;;;1.30;;
50671;SDS011;46021;55.882;37.654;2022-07-17T12:02:07;2.50;;;1.20;;
50671;SDS011;46021;55.882;37.654;2022-07-17T12:04:34;4.35;;;1.40;;
50671;SDS011;46021;55.882;37.654;2022-07-17T12:07:02;5.65;;;1.30;;
50671;SDS011;46021;55.882;37.654;2022-07-17T12:09:31;7.57;;;1.58;;
50671;SDS011;46021;55.882;37.654;2022-07-17T12:11:59;4.75;;;1.27;;
50671;SDS011;46021;55.882;37.654;2022-07-17T12:14:27;2.05;;;1.15;;
50671;SDS011;46021;55.882;37.654;2022-07-17T12:16:55;5.18;;;1.23;;
50671;SDS011;46021;55.882;37.654;2022-07-17T12:19:23;2.90;;;1.70;;
50671;SDS011;46021;55.882;37.654;2022-07-17T12:21:51;5.75;;;1.15;;
50671;SDS011;46021;55.882;37.654;2022-07-17T12:24:25;4.72;;;1.10;;
50671;SDS011;46021;55.882;37.654;2022-07-17T12:26:54;4.07;;;1.25;;
50671;SDS011;46021;55.882;37.654;2022-07-17T12:29:22;3.10;;;1.02;;
50671;SDS011;46021;55.882;37.654;2022-07-17T12:31:59;5.57;;;3.20;;
50671;SDS011;46021;55.882;37.654;2022-07-17T12:34:27;2.13;;;1.13;;
50671;SDS011;46021;55.882;37.654;2022-07-17T12:36:53;2.95;;;0.98;;
50671;SDS011;46021;55.882;37.654;2022-07-17T12:39:20;4.37;;;1.30;;
50671;SDS011;46021;55.882;37.654;2022-07-17T12:41:47;6.07;;;2.00;;
50671;SDS011;46021;55.882;37.654;2022-07-17T12:44:14;3.85;;;1.35;;
50671;SDS011;46021;55.882;37.654;2022-07-17T12:46:41;6.75;;;2.38;;
50671;SDS011;46021;55.882;37.654;2022-07-17T12:49:07;7.10;;;1.20;;
50671;SDS011;46021;55.882;37.654;2022-07-17T12:51:34;3.57;;;1.50;;
50671;SDS011;46021;55.882;37.654;2022-07-17T12:54:00;5.25;;;2.40;;
50671;SDS011;46021;55.882;37.654;2022-07-17T12:56:27;5.10;;;2.30;;
50671;SDS011;46021;55.882;37.654;2022-07-17T12:58:54;4.77;;;1.97;;
50671;SDS011;46021;55.882;37.654;2022-07-17T13:01:21;4.80;;;1.95;;
50671;SDS011;46021;55.882;37.654;2022-07-17T13:03:47;2.07;;;1.17;;
50671;SDS011;46021;55.882;37.654;2022-07-17T13:06:14;6.70;;;2.33;;
50671;SDS011;46021;55.882;37.654;2022-07-17T13:08:40;6.33;;;1.57;;
50671;SDS011;46021;55.882;37.654;2022-07-17T13:11:07;5.27;;;1.50;;
50671;SDS011;46021;55.882;37.654;2022-07-17T13:13:34;5.95;;;2.03;;
50671;SDS011;46021;55.882;37.654;2022-07-17T13:16:01;6.03;;;3.23;;
50671;SDS011;46021;55.882;37.654;2022-07-17T13:18:28;3.88;;;1.95;;
50671;SDS011;46021;55.882;37.654;2022-07-17T13:20:54;3.53;;;1.75;;
50671;SDS011;46021;55.882;37.654;2022-07-17T13:23:21;11.60;;;1.90;;
50671;SDS011;46021;55.882;37.654;2022-07-17T13:25:48;3.33;;;1.60;;
50671;SDS011;46021;55.882;37.654;2022-07-17T13:28:14;2.37;;;1.13;;
50671;SDS011;46021;55.882;37.654;2022-07-17T13:30:41;6.07;;;3.00;;
50671;SDS011;46021;55.882;37.654;2022-07-17T13:33:08;7.03;;;2.10;;
50671;SDS011;46021;55.882;37.654;2022-07-17T13:35:35;10.23;;;1.92;;
50671;SDS011;46021;55.882;37.654;2022-07-17T13:38:02;2.77;;;1.57;;
50671;SDS011;46021;55.882;37.654;2022-07-17T13:40:29;3.42;;;1.50;;
50671;SDS011;46021;55.882;37.654;2022-07-17T13:42:56;2.50;;;0.90;;
50671;SDS011;46021;55.882;37.654;2022-07-17T13:45:23;3.40;;;1.67;;
50671;SDS011;46021;55.882;37.654;2022-07-17T13:47:49;4.72;;;1.98;;
50671;SDS011;46021;55.882;37.654;2022-07-17T13:50:17;3.38;;;1.65;;
50671;SDS011;46021;55.882;37.654;2022-07-17T13:55:10;10.07;;;2.10;;
50671;SDS011;46021;55.882;37.654;2022-07-17T13:57:37;5.00;;;1.80;;
50671;SDS011;46021;55.882;37.654;2022-07-17T14:00:03;4.70;;;2.22;;
50671;SDS011;46021;55.882;37.654;2022-07-17T14:02:35;7.53;;;1.92;;
50671;SDS011;46021;55.882;37.654;2022-07-17T14:05:03;8.73;;;2.20;;
50671;SDS011;46021;55.882;37.654;2022-07-17T14:07:32;6.47;;;2.60;;
50671;SDS011;46021;55.882;37.654;2022-07-17T14:09:59;5.30;;;2.35;;
50671;SDS011;46021;55.882;37.654;2022-07-17T14:12:26;7.18;;;3.75;;
50671;SDS011;46021;55.882;37.654;2022-07-17T14:14:53;5.67;;;2.67;;
50671;SDS011;46021;55.882;37.654;2022-07-17T14:17:19;5.87;;;2.57;;
50671;SDS011;46021;55.882;37.654;2022-07-17T14:19:46;7.85;;;2.70;;
50671;SDS011;46021;55.882;37.654;2022-07-17T14:22:13;9.73;;;4.90;;
50671;SDS011;46021;55.882;37.654;2022-07-17T14:24:40;4.33;;;2.50;;
50671;SDS011;46021;55.882;37.654;2022-07-17T14:27:06;3.67;;;1.88;;
50671;SDS011;46021;55.882;37.654;2022-07-17T14:29:33;5.73;;;2.00;;
50671;SDS011;46021;55.882;37.654;2022-07-17T14:32:00;3.95;;;1.83;;
50671;SDS011;46021;55.882;37.654;2022-07-17T14:34:27;4.10;;;1.87;;
50671;SDS011;46021;55.882;37.654;2022-07-17T14:36:53;2.60;;;1.65;;
50671;SDS011;46021;55.882;37.654;2022-07-17T14:39:20;3.63;;;1.73;;
50671;SDS011;46021;55.882;37.654;2022-07-17T14:41:47;4.30;;;2.03;;
50671;SDS011;46021;55.882;37.654;2022-07-17T14:44:14;3.30;;;1.48;;
50671;SDS011;46021;55.882;37.654;2022-07-17T14:46:40;4.32;;;1.90;;
50671;SDS011;46021;55.882;37.654;2022-07-17T14:49:07;5.13;;;1.90;;
50671;SDS011;46021;55.882;37.654;2022-07-17T14:51:33;3.58;;;2.05;;
50671;SDS011;46021;55.882;37.654;2022-07-17T14:54:00;2.97;;;1.50;;
50671;SDS011;46021;55.882;37.654;2022-07-17T14:56:27;6.37;;;2.03;;
50671;SDS011;46021;55.882;37.654;2022-07-17T14:58:54;2.47;;;1.38;;
50671;SDS011;46021;55.882;37.654;2022-07-17T15:01:20;8.13;;;2.25;;
50671;SDS011;46021;55.882;37.654;2022-07-17T15:03:47;5.00;;;1.87;;
50671;SDS011;46021;55.882;37.654;2022-07-17T15:06:13;5.32;;;1.90;;
50671;SDS011;46021;55.882;37.654;2022-07-17T15:08:40;3.20;;;1.77;;
50671;SDS011;46021;55.882;37.654;2022-07-17T15:11:07;6.17;;;1.80;;